Time;durP1;ratioP1;P1;durP2;ratioP2;P2;SDS_P1;SDS_P2;PMS_P1;PMS_P2;Temp;Humidity;BMP_temperature;BMP_pressure;BME280_temperature;BME280_humidity;BME280_pressure;Samples;Min_cycle;Max_cycle;Signal;HPM_P1;HPM_P2
2021/12/03 00:00:02;;;;;;;5.68;4.40;;;1.60;99.90;;;;;;5052894;28;20036;-69
2021/12/03 00:02:28;;;;;;;10.52;5.43;;;1.60;99.90;;;;;;5052686;28;20028;-69
2021/12/03 00:04:54;;;;;;;8.00;4.60;;;1.60;99.90;;;;;;5052690;28;20025;-69
2021/12/03 00:07:19;;;;;;;7.93;4.75;;;1.60;99.90;;;;;;5051587;28;20032;-68
2021/12/03 00:09:45;;;;;;;7.55;5.07;;;1.70;99.90;;;;;;5043266;28;20489;-69
2021/12/03 00:12:11;;;;;;;8.48;4.65;;;1.70;99.90;;;;;;5048368;28;20031;-68
2021/12/03 00:14:38;;;;;;;5.78;4.78;;;1.60;99.90;;;;;;5036496;28;20068;-68
2021/12/03 00:17:04;;;;;;;6.35;4.72;;;1.60;99.90;;;;;;5052180;28;20580;-67
2021/12/03 00:19:30;;;;;;;6.80;4.80;;;1.70;99.90;;;;;;5052649;28;20036;-68
2021/12/03 00:21:56;;;;;;;7.43;5.10;;;1.70;99.90;;;;;;5052397;28;20059;-69
2021/12/03 00:24:21;;;;;;;8.32;4.55;;;1.70;99.90;;;;;;5052797;28;20123;-68
2021/12/03 00:26:47;;;;;;;6.05;4.47;;;1.60;99.90;;;;;;5051421;28;20095;-68
2021/12/03 00:29:13;;;;;;;7.88;4.35;;;1.70;99.90;;;;;;5051733;28;20028;-69
2021/12/03 00:31:39;;;;;;;9.93;4.05;;;1.70;99.90;;;;;;5052049;28;20025;-68
2021/12/03 00:34:04;;;;;;;5.38;4.20;;;1.70;99.90;;;;;;5052826;28;20430;-68
2021/12/03 00:36:30;;;;;;;5.38;4.20;;;1.70;99.90;;;;;;5052132;28;20020;-67
2021/12/03 00:38:59;;;;;;;5.13;3.80;;;1.70;99.90;;;;;;5051425;28;20102;-68
2021/12/03 00:41:29;;;;;;;6.72;4.78;;;1.70;99.90;;;;;;5052041;28;20071;-68
2021/12/03 00:43:55;;;;;;;5.60;3.80;;;1.70;99.90;;;;;;5052986;28;20384;-68
2021/12/03 00:46:22;;;;;;;5.15;4.20;;;1.70;99.90;;;;;;5052526;28;20036;-68
2021/12/03 00:48:51;;;;;;;6.28;4.45;;;1.70;99.90;;;;;;5051431;28;20032;-68
2021/12/03 00:51:18;;;;;;;4.82;4.22;;;1.70;99.90;;;;;;5051545;28;20029;-68
2021/12/03 00:53:44;;;;;;;6.95;4.60;;;1.70;99.90;;;;;;5052484;28;20035;-69
2021/12/03 00:56:11;;;;;;;9.93;4.25;;;1.70;99.90;;;;;;5052170;28;20541;-69
2021/12/03 00:58:37;;;;;;;6.45;4.40;;;1.70;99.90;;;;;;5051573;28;20050;-70
2021/12/03 01:01:04;;;;;;;6.68;4.75;;;1.60;99.90;;;;;;5052114;28;20162;-69
2021/12/03 01:03:30;;;;;;;6.93;4.57;;;1.70;99.90;;;;;;5052250;28;20031;-69
2021/12/03 01:05:56;;;;;;;7.82;4.70;;;1.70;99.90;;;;;;5052301;28;20372;-70
2021/12/03 01:08:22;;;;;;;5.70;4.40;;;1.70;99.90;;;;;;5050582;28;20028;-69
2021/12/03 01:10:48;;;;;;;5.78;4.80;;;1.70;99.90;;;;;;5048410;28;20036;-70
2021/12/03 01:13:13;;;;;;;6.95;5.38;;;1.60;99.90;;;;;;5051668;28;20024;-69
2021/12/03 01:15:41;;;;;;;7.75;5.13;;;1.70;99.90;;;;;;5044518;28;20051;-69
2021/12/03 01:18:09;;;;;;;9.75;5.15;;;1.60;99.90;;;;;;5050918;28;20540;-70
2021/12/03 01:20:36;;;;;;;5.97;4.65;;;1.60;99.90;;;;;;5051934;28;20028;-69
2021/12/03 01:23:02;;;;;;;9.40;5.18;;;1.60;99.90;;;;;;5051918;28;20112;-69
2021/12/03 01:25:28;;;;;;;7.78;5.35;;;1.60;99.90;;;;;;5052018;28;20089;-69
2021/12/03 01:27:55;;;;;;;7.78;5.45;;;1.60;99.90;;;;;;5050819;28;20058;-70
2021/12/03 01:30:22;;;;;;;7.22;4.95;;;1.60;99.90;;;;;;5052427;28;20036;-69
2021/12/03 01:32:49;;;;;;;7.45;5.32;;;1.60;99.90;;;;;;5051896;28;20056;-70
2021/12/03 01:35:15;;;;;;;9.43;5.60;;;1.60;99.90;;;;;;5052060;28;20070;-70
2021/12/03 01:37:42;;;;;;;8.25;5.65;;;1.60;99.90;;;;;;5050656;28;20025;-69
2021/12/03 01:40:13;;;;;;;8.60;6.07;;;1.50;99.90;;;;;;5054515;28;20033;-69
2021/12/03 01:42:41;;;;;;;10.88;5.82;;;1.50;99.90;;;;;;5055491;28;20430;-73
2021/12/03 01:45:08;;;;;;;6.85;5.85;;;1.50;99.90;;;;;;5055740;28;20600;-70
2021/12/03 01:47:34;;;;;;;7.40;5.85;;;1.50;99.90;;;;;;5055101;28;20032;-69
2021/12/03 01:50:00;;;;;;;8.48;6.20;;;1.50;99.90;;;;;;5055319;28;20314;-69
2021/12/03 01:52:25;;;;;;;9.43;6.25;;;1.50;99.90;;;;;;5054305;28;20035;-70
2021/12/03 01:54:53;;;;;;;9.98;5.85;;;1.50;99.90;;;;;;5054633;28;20036;-69
2021/12/03 01:57:19;;;;;;;11.27;5.97;;;1.50;99.90;;;;;;5054530;28;20165;-68
2021/12/03 01:59:45;;;;;;;7.82;5.90;;;1.50;99.90;;;;;;5055454;28;20491;-70
2021/12/03 02:02:11;;;;;;;7.47;5.70;;;1.40;99.90;;;;;;5055005;28;20021;-70
2021/12/03 02:04:36;;;;;;;10.02;6.30;;;1.40;99.90;;;;;;5054773;28;20035;-69
2021/12/03 02:07:02;;;;;;;8.30;6.28;;;1.40;99.90;;;;;;5053911;28;20119;-69
2021/12/03 02:09:28;;;;;;;9.65;6.18;;;1.40;99.90;;;;;;5055136;28;20063;-69
2021/12/03 02:11:54;;;;;;;7.22;5.88;;;1.40;99.90;;;;;;5048308;28;20136;-69
2021/12/03 02:14:20;;;;;;;9.20;6.38;;;1.40;99.90;;;;;;5053059;28;20029;-69
2021/12/03 02:16:46;;;;;;;9.43;6.57;;;1.40;99.90;;;;;;5054846;28;20027;-69
2021/12/03 02:19:13;;;;;;;11.48;6.32;;;1.50;99.90;;;;;;5053828;28;20511;-69
2021/12/03 02:21:39;;;;;;;9.25;6.10;;;1.50;99.90;;;;;;5054716;28;20027;-69
2021/12/03 02:24:05;;;;;;;7.32;6.15;;;1.40;99.90;;;;;;5054763;28;20028;-69
2021/12/03 02:26:31;;;;;;;7.28;5.93;;;1.40;99.90;;;;;;5054952;28;20055;-69
2021/12/03 02:28:57;;;;;;;11.23;6.28;;;1.40;99.90;;;;;;5053779;28;20503;-69
2021/12/03 02:31:24;;;;;;;9.40;6.13;;;1.50;99.90;;;;;;5054244;28;20028;-69
2021/12/03 02:33:51;;;;;;;8.45;5.97;;;1.50;99.90;;;;;;5054446;28;20576;-69
2021/12/03 02:36:17;;;;;;;7.05;5.35;;;1.50;99.90;;;;;;5054797;28;20101;-69
2021/12/03 02:38:44;;;;;;;8.98;5.72;;;1.40;99.90;;;;;;5051934;28;20111;-69
2021/12/03 02:41:10;;;;;;;10.15;6.00;;;1.40;99.90;;;;;;5051821;28;20043;-69
2021/12/03 02:43:36;;;;;;;7.80;5.18;;;1.40;99.90;;;;;;5054692;28;20021;-69
2021/12/03 02:46:02;;;;;;;8.25;5.82;;;1.40;99.90;;;;;;5054801;28;20021;-70
2021/12/03 02:48:28;;;;;;;7.82;5.78;;;1.50;99.90;;;;;;5053101;28;20101;-69
2021/12/03 02:50:55;;;;;;;6.45;5.22;;;1.50;99.90;;;;;;5053177;28;20021;-69
2021/12/03 02:53:21;;;;;;;8.70;5.57;;;1.50;99.90;;;;;;5053698;28;20079;-70
2021/12/03 02:55:47;;;;;;;8.98;5.90;;;1.40;99.90;;;;;;5054312;28;20067;-69
2021/12/03 02:58:13;;;;;;;7.50;5.53;;;1.50;99.90;;;;;;5052862;28;20111;-69
2021/12/03 03:00:41;;;;;;;8.45;5.32;;;1.50;99.90;;;;;;5054352;28;20063;-69
2021/12/03 03:03:06;;;;;;;10.43;5.47;;;1.50;99.90;;;;;;5053718;28;20024;-69
2021/12/03 03:05:32;;;;;;;8.70;5.13;;;1.50;99.90;;;;;;5053885;28;20469;-69
2021/12/03 03:07:58;;;;;;;7.13;5.00;;;1.40;99.90;;;;;;5053355;28;20488;-69
2021/12/03 03:10:30;;;;;;;7.50;5.80;;;1.50;99.90;;;;;;5071592;28;20484;-68
2021/12/03 03:12:57;;;;;;;6.72;4.80;;;1.50;99.90;;;;;;5053023;28;20028;-69
2021/12/03 03:15:23;;;;;;;7.10;5.57;;;1.50;99.90;;;;;;5042292;28;20494;-70
2021/12/03 03:17:49;;;;;;;7.63;5.57;;;1.50;99.90;;;;;;5052921;28;20086;-69
2021/12/03 03:20:15;;;;;;;8.30;4.75;;;1.40;99.90;;;;;;5053172;28;20025;-69
2021/12/03 03:22:42;;;;;;;6.28;4.85;;;1.40;99.90;;;;;;5053165;28;20032;-69
2021/12/03 03:25:11;;;;;;;5.30;4.65;;;1.40;99.90;;;;;;5053846;28;20039;-69
2021/12/03 03:27:37;;;;;;;7.88;5.22;;;1.40;99.90;;;;;;5053361;28;20123;-70
2021/12/03 03:30:08;;;;;;;7.57;4.93;;;1.40;99.90;;;;;;5053601;28;20074;-68
2021/12/03 03:32:34;;;;;;;7.22;5.05;;;1.40;99.90;;;;;;5053330;28;20024;-69
2021/12/03 03:35:00;;;;;;;5.88;4.90;;;1.40;99.90;;;;;;5052865;28;20035;-68
2021/12/03 03:37:26;;;;;;;5.97;4.80;;;1.40;99.90;;;;;;5052110;28;20025;-69
2021/12/03 03:39:52;;;;;;;6.57;4.78;;;1.40;99.90;;;;;;5045006;28;20362;-68
2021/12/03 03:42:17;;;;;;;6.38;4.55;;;1.40;99.90;;;;;;5049567;28;20024;-68
2021/12/03 03:44:43;;;;;;;8.38;4.97;;;1.40;99.90;;;;;;5053764;28;20040;-68
2021/12/03 03:47:09;;;;;;;7.72;5.35;;;1.40;99.90;;;;;;5052492;28;20069;-69
2021/12/03 03:49:35;;;;;;;6.28;5.00;;;1.40;99.90;;;;;;5052540;28;20028;-68
2021/12/03 03:52:02;;;;;;;6.88;4.97;;;1.40;99.90;;;;;;5053285;28;20123;-68
2021/12/03 03:54:28;;;;;;;8.68;5.15;;;1.40;99.90;;;;;;5052803;28;20032;-68
2021/12/03 03:56:54;;;;;;;7.00;5.32;;;1.40;99.90;;;;;;5053145;28;20078;-68
2021/12/03 03:59:21;;;;;;;8.00;5.18;;;1.40;99.90;;;;;;5052410;28;20100;-68
2021/12/03 04:01:49;;;;;;;5.63;4.65;;;1.30;99.90;;;;;;5052835;28;20040;-69
2021/12/03 04:04:15;;;;;;;6.88;5.15;;;1.30;99.90;;;;;;5052284;28;20476;-69
2021/12/03 04:06:41;;;;;;;8.07;4.93;;;1.30;99.90;;;;;;5052872;28;20032;-68
2021/12/03 04:09:08;;;;;;;6.18;5.00;;;1.30;99.90;;;;;;5050783;28;20416;-69
2021/12/03 04:11:34;;;;;;;9.45;5.57;;;1.30;99.90;;;;;;5044679;28;20054;-68
2021/12/03 04:14:00;;;;;;;7.45;5.30;;;1.30;99.90;;;;;;5039034;28;20046;-69
2021/12/03 04:16:26;;;;;;;8.20;5.00;;;1.30;99.90;;;;;;5053276;28;20070;-68
2021/12/03 04:18:53;;;;;;;6.97;5.40;;;1.30;99.90;;;;;;5058516;28;20017;-68
2021/12/03 04:21:18;;;;;;;7.60;5.80;;;1.20;99.90;;;;;;5053012;28;20024;-68
2021/12/03 04:23:44;;;;;;;9.32;5.40;;;1.30;99.90;;;;;;5053210;28;20397;-68
2021/12/03 04:26:10;;;;;;;6.28;5.30;;;1.20;99.90;;;;;;5053099;28;20081;-68
2021/12/03 04:28:36;;;;;;;7.32;5.20;;;1.20;99.90;;;;;;5052581;28;20032;-68
2021/12/03 04:33:29;;;;;;;7.45;5.32;;;1.20;99.90;;;;;;4990442;28;20121;-70
2021/12/03 04:35:55;;;;;;;7.32;5.57;;;1.20;99.90;;;;;;5050258;28;20057;-71
2021/12/03 04:38:21;;;;;;;9.93;6.03;;;1.20;99.90;;;;;;5052490;28;20628;-70
2021/12/03 04:40:47;;;;;;;7.70;5.47;;;1.20;99.90;;;;;;5055459;28;20103;-71
2021/12/03 04:43:13;;;;;;;6.70;5.07;;;1.20;99.90;;;;;;5055007;28;20022;-71
2021/12/03 04:45:39;;;;;;;8.65;5.43;;;1.20;99.90;;;;;;4986362;28;20038;-70
2021/12/03 04:48:06;;;;;;;6.70;5.47;;;1.20;99.90;;;;;;5051395;28;20030;-70
2021/12/03 04:50:39;;;;;;;6.22;4.97;;;1.20;99.90;;;;;;5048038;28;20034;-71
2021/12/03 04:53:06;;;;;;;9.77;5.72;;;1.20;99.90;;;;;;5043736;28;20109;-70
2021/12/03 04:55:33;;;;;;;9.90;4.90;;;1.20;99.90;;;;;;5054907;28;20482;-70
2021/12/03 04:57:59;;;;;;;7.35;5.38;;;1.20;99.90;;;;;;5054115;28;20031;-70
2021/12/03 05:00:52;;;;;;;8.02;5.75;;;1.20;99.90;;;;;;5054254;28;20096;-71
2021/12/03 05:03:19;;;;;;;8.50;5.63;;;1.20;99.90;;;;;;5041515;28;20019;-70
2021/12/03 05:05:53;;;;;;;14.85;6.28;;;1.20;99.90;;;;;;5054125;28;20125;-71
2021/12/03 05:08:19;;;;;;;8.82;6.07;;;1.20;99.90;;;;;;5054619;28;20027;-70
2021/12/03 05:10:45;;;;;;;6.90;5.43;;;1.10;99.90;;;;;;5043372;28;20076;-70
2021/12/03 05:13:20;;;;;;;9.77;6.82;;;1.20;99.90;;;;;;5052368;28;20025;-70
2021/12/03 05:15:47;;;;;;;8.57;5.55;;;1.20;99.90;;;;;;5057351;28;20062;-70
2021/12/03 05:18:18;;;;;;;8.23;6.28;;;1.20;99.90;;;;;;5057742;28;20030;-70
2021/12/03 05:20:45;;;;;;;10.40;6.93;;;1.20;99.90;;;;;;5059194;28;20030;-70
2021/12/03 05:23:11;;;;;;;8.85;6.15;;;1.20;99.90;;;;;;5059471;28;20068;-72
2021/12/03 05:25:38;;;;;;;8.65;6.40;;;1.20;99.90;;;;;;5059081;28;20439;-72
2021/12/03 05:28:06;;;;;;;8.95;6.53;;;1.20;99.90;;;;;;5037190;28;20034;-70
2021/12/03 05:30:32;;;;;;;8.10;6.38;;;1.20;99.90;;;;;;5054840;28;20034;-70
2021/12/03 05:32:58;;;;;;;9.52;6.07;;;1.30;99.90;;;;;;5054853;28;20030;-70
2021/12/03 05:35:25;;;;;;;8.70;6.25;;;1.20;99.90;;;;;;5059594;28;20049;-70
2021/12/03 05:37:51;;;;;;;11.18;6.32;;;1.20;99.90;;;;;;5058595;28;20117;-70
2021/12/03 05:40:18;;;;;;;10.18;6.90;;;1.20;99.90;;;;;;5059759;28;20062;-70
2021/12/03 05:42:45;;;;;;;10.40;6.72;;;1.20;99.90;;;;;;5058901;28;20058;-70
2021/12/03 05:45:31;;;;;;;9.88;6.47;;;1.20;99.90;;;;;;5059120;28;20482;-71
2021/12/03 05:47:58;;;;;;;10.75;6.80;;;1.20;99.90;;;;;;5052108;28;20054;-68
2021/12/03 05:50:25;;;;;;;11.48;7.90;;;1.20;99.90;;;;;;5054249;28;20034;-69
2021/12/03 05:52:51;;;;;;;11.93;7.70;;;1.20;99.90;;;;;;5054485;28;20026;-69
2021/12/03 05:55:17;;;;;;;10.98;7.82;;;1.20;99.90;;;;;;5053556;28;20547;-70
2021/12/03 05:57:44;;;;;;;13.93;8.88;;;1.10;99.90;;;;;;5055079;28;20026;-69
2021/12/03 06:00:14;;;;;;;11.98;7.82;;;1.20;99.90;;;;;;5055425;28;20335;-69
2021/12/03 06:02:40;;;;;;;13.10;8.40;;;1.20;99.90;;;;;;5062862;28;20020;-69
2021/12/03 06:05:07;;;;;;;12.55;8.48;;;1.20;99.90;;;;;;5058575;28;20037;-69
2021/12/03 06:07:33;;;;;;;12.57;8.13;;;1.10;99.90;;;;;;5057514;28;20030;-69
2021/12/03 06:09:59;;;;;;;11.95;8.02;;;1.10;99.90;;;;;;5059689;28;20033;-70
2021/12/03 06:12:24;;;;;;;11.45;7.28;;;1.10;99.90;;;;;;5051208;28;20031;-71
2021/12/03 06:14:50;;;;;;;10.68;7.00;;;1.00;99.90;;;;;;5055455;28;20027;-70
2021/12/03 06:17:16;;;;;;;11.00;7.03;;;1.00;99.90;;;;;;5053234;28;20049;-70
2021/12/03 06:19:43;;;;;;;9.98;7.25;;;1.00;99.90;;;;;;5053600;28;20081;-71
2021/12/03 06:22:10;;;;;;;10.35;6.72;;;1.00;99.90;;;;;;5053258;28;20023;-71
2021/12/03 06:24:38;;;;;;;15.32;7.50;;;0.90;99.90;;;;;;5047451;28;20062;-70
2021/12/03 06:27:04;;;;;;;9.43;6.85;;;1.00;99.90;;;;;;5067492;28;20103;-70
2021/12/03 06:29:30;;;;;;;10.15;6.90;;;0.90;99.90;;;;;;5053274;28;20038;-71
2021/12/03 06:31:56;;;;;;;13.10;7.43;;;0.90;99.90;;;;;;5058587;28;20038;-71
2021/12/03 06:34:22;;;;;;;14.18;8.48;;;0.90;99.90;;;;;;5049735;28;20042;-71
2021/12/03 06:36:48;;;;;;;12.63;8.00;;;0.90;99.90;;;;;;5058734;28;20019;-71
2021/12/03 06:39:14;;;;;;;13.23;8.30;;;1.00;99.90;;;;;;5046608;28;20027;-71
2021/12/03 06:41:40;;;;;;;12.65;8.07;;;1.00;99.90;;;;;;5051390;28;20026;-71
2021/12/03 06:44:08;;;;;;;10.55;7.57;;;1.00;99.90;;;;;;5058142;28;20031;-71
2021/12/03 06:46:36;;;;;;;12.75;7.85;;;1.00;99.90;;;;;;5057867;28;20080;-71
2021/12/03 06:49:03;;;;;;;12.77;8.98;;;1.00;99.90;;;;;;5057449;28;20026;-71
2021/12/03 06:51:30;;;;;;;13.98;8.63;;;1.00;99.90;;;;;;5052287;28;20135;-71
2021/12/03 06:54:02;;;;;;;12.88;8.50;;;1.00;99.90;;;;;;5053354;28;20055;-71
2021/12/03 06:56:47;;;;;;;14.00;8.93;;;0.90;99.90;;;;;;5051686;28;20049;-71
2021/12/03 06:59:17;;;;;;;12.40;8.57;;;1.00;99.90;;;;;;5037299;28;20041;-71
2021/12/03 07:01:43;;;;;;;15.00;8.02;;;0.90;99.90;;;;;;5056437;28;20122;-71
2021/12/03 07:04:09;;;;;;;19.42;11.27;;;0.90;99.90;;;;;;5058264;28;20026;-71
2021/12/03 07:06:35;;;;;;;10.70;7.88;;;0.90;99.90;;;;;;4990247;28;20033;-71
2021/12/03 07:09:01;;;;;;;12.48;7.97;;;0.90;99.90;;;;;;5057210;28;20410;-71
2021/12/03 07:11:27;;;;;;;15.55;8.88;;;0.80;99.90;;;;;;5050086;28;20037;-72
2021/12/03 07:13:53;;;;;;;13.25;7.57;;;0.80;99.90;;;;;;5022442;28;20125;-71
2021/12/03 07:16:19;;;;;;;10.95;8.20;;;0.80;99.90;;;;;;5051589;28;20088;-71
2021/12/03 07:18:44;;;;;;;15.75;9.05;;;0.80;99.90;;;;;;5056500;28;20031;-71
2021/12/03 07:21:11;;;;;;;13.88;8.75;;;0.70;99.90;;;;;;5051333;28;20030;-70
2021/12/03 07:23:37;;;;;;;14.02;7.93;;;0.70;99.90;;;;;;5057151;28;20482;-71
2021/12/03 07:26:03;;;;;;;13.15;8.43;;;0.70;99.90;;;;;;5057713;28;20068;-71
2021/12/03 07:28:30;;;;;;;12.43;7.85;;;0.80;99.90;;;;;;5054466;28;20407;-71
2021/12/03 07:30:57;;;;;;;12.15;7.97;;;0.70;99.90;;;;;;5018485;28;20054;-71
2021/12/03 07:33:22;;;;;;;14.02;7.95;;;0.70;99.90;;;;;;5057056;28;20042;-71
2021/12/03 07:35:49;;;;;;;11.07;7.70;;;0.70;99.90;;;;;;5057143;28;20026;-71
2021/12/03 07:38:17;;;;;;;12.52;8.30;;;0.70;99.90;;;;;;5056256;28;20026;-71
2021/12/03 07:40:44;;;;;;;16.40;7.47;;;0.70;99.90;;;;;;5057007;28;20092;-71
2021/12/03 07:43:10;;;;;;;11.10;7.25;;;0.70;99.90;;;;;;5066322;28;20029;-71
2021/12/03 07:45:37;;;;;;;13.23;7.93;;;0.60;99.90;;;;;;5046850;28;20084;-71
2021/12/03 07:48:04;;;;;;;12.68;8.30;;;0.60;99.90;;;;;;5050029;28;20035;-71
2021/12/03 07:50:33;;;;;;;11.10;6.82;;;0.60;99.90;;;;;;5047029;28;20064;-71
2021/12/03 07:52:59;;;;;;;10.75;7.45;;;0.60;99.90;;;;;;5045636;28;20561;-71
2021/12/03 07:55:25;;;;;;;13.18;7.75;;;0.60;99.90;;;;;;5047630;28;20037;-71
2021/12/03 07:57:52;;;;;;;10.30;6.85;;;0.60;99.90;;;;;;5047523;28;20029;-69
2021/12/03 08:00:18;;;;;;;10.98;6.88;;;0.60;99.90;;;;;;5027402;28;20030;-71
2021/12/03 08:02:44;;;;;;;12.32;7.07;;;0.60;99.90;;;;;;5048840;28;20031;-72
2021/12/03 08:05:10;;;;;;;12.15;7.15;;;0.60;99.90;;;;;;5053506;28;20126;-72
2021/12/03 08:07:36;;;;;;;14.52;7.13;;;0.50;99.90;;;;;;5061716;28;20123;-72
2021/12/03 08:10:03;;;;;;;11.35;6.82;;;0.50;99.90;;;;;;4990982;28;20061;-72
2021/12/03 08:12:29;;;;;;;12.38;6.97;;;0.60;99.90;;;;;;5063280;28;20034;-72
2021/12/03 08:14:54;;;;;;;11.18;7.00;;;0.60;99.90;;;;;;5056963;28;20371;-71
2021/12/03 08:17:20;;;;;;;10.07;6.60;;;0.60;99.90;;;;;;5060993;28;20022;-71
2021/12/03 08:19:46;;;;;;;11.68;6.80;;;0.60;99.90;;;;;;5060482;28;20030;-72
2021/12/03 08:22:11;;;;;;;10.07;6.72;;;0.60;99.90;;;;;;5054836;28;20042;-71
2021/12/03 08:24:37;;;;;;;13.80;6.88;;;0.60;99.90;;;;;;4985512;28;20394;-71
2021/12/03 08:27:03;;;;;;;11.18;6.80;;;0.60;99.90;;;;;;5048366;28;20502;-72
2021/12/03 08:29:28;;;;;;;9.63;6.28;;;0.60;99.90;;;;;;5059680;28;20120;-72
2021/12/03 08:31:54;;;;;;;15.25;8.13;;;0.60;99.90;;;;;;5035648;28;20374;-72
2021/12/03 08:34:20;;;;;;;10.95;6.68;;;0.60;99.90;;;;;;4970952;28;20487;-72
2021/12/03 08:36:46;;;;;;;12.23;7.13;;;0.60;99.90;;;;;;4970088;28;20392;-72
2021/12/03 08:39:11;;;;;;;13.27;8.25;;;0.70;99.90;;;;;;4969878;28;20666;-72
2021/12/03 08:41:37;;;;;;;12.55;6.30;;;0.70;99.90;;;;;;5047645;28;20025;-72
2021/12/03 08:44:04;;;;;;;12.25;7.32;;;0.80;99.90;;;;;;5059167;28;20033;-72
2021/12/03 08:46:35;;;;;;;11.75;7.40;;;0.80;99.90;;;;;;5058031;28;20026;-71
2021/12/03 08:49:09;;;;;;;13.23;6.65;;;0.80;99.90;;;;;;5059558;28;20117;-72
2021/12/03 08:56:54;;;;;;;10.90;5.70;;;0.90;99.90;;;;;;4976377;28;20490;-72
2021/12/03 08:59:20;;;;;;;7.88;5.32;;;0.90;99.90;;;;;;5022968;28;20462;-72
2021/12/03 09:01:46;;;;;;;14.93;8.70;;;1.00;99.90;;;;;;5060856;28;20022;-72
2021/12/03 09:04:15;;;;;;;9.82;6.30;;;1.00;99.90;;;;;;5033247;28;20081;-72
2021/12/03 09:06:41;;;;;;;14.18;7.18;;;1.10;99.90;;;;;;4973077;28;20414;-72
2021/12/03 09:09:08;;;;;;;9.73;5.57;;;1.10;99.90;;;;;;5040616;28;20031;-72
2021/12/03 09:11:37;;;;;;;10.02;5.07;;;1.20;99.90;;;;;;5061655;28;20034;-72
2021/12/03 09:14:12;;;;;;;11.93;4.90;;;1.20;99.90;;;;;;5061597;28;20029;-72
2021/12/03 09:16:38;;;;;;;7.75;4.78;;;1.20;99.90;;;;;;5061556;28;20394;-72
2021/12/03 09:19:09;;;;;;;5.68;4.53;;;1.20;99.90;;;;;;5062357;28;20022;-72
2021/12/03 09:21:35;;;;;;;9.73;4.20;;;1.20;99.90;;;;;;5051429;28;20375;-73
2021/12/03 09:26:27;;;;;;;7.00;4.00;;;1.20;99.90;;;;;;5015776;28;20027;-72
2021/12/03 09:29:04;;;;;;;5.53;4.00;;;1.30;99.90;;;;;;5060644;28;20532;-72
2021/12/03 09:31:32;;;;;;;8.07;5.20;;;1.30;99.90;;;;;;5052148;28;20482;-72
2021/12/03 09:33:58;;;;;;;6.45;3.95;;;1.30;99.90;;;;;;5060600;28;20019;-74
2021/12/03 09:36:24;;;;;;;6.40;4.15;;;1.30;99.90;;;;;;5061427;28;20046;-73
2021/12/03 09:38:50;;;;;;;6.53;3.85;;;1.30;99.90;;;;;;5061347;28;20032;-71
2021/12/03 09:41:20;;;;;;;5.55;3.30;;;1.30;99.90;;;;;;5061074;28;20072;-71
2021/12/03 09:43:52;;;;;;;5.40;3.53;;;1.30;99.90;;;;;;5061687;28;20023;-71
2021/12/03 09:46:24;;;;;;;5.43;3.80;;;1.30;99.90;;;;;;5062066;28;20479;-70
2021/12/03 09:51:18;;;;;;;10.50;6.18;;;1.30;99.90;;;;;;4987572;28;20502;-70
2021/12/03 09:56:31;;;;;;;8.40;4.72;;;1.30;99.90;;;;;;4989052;28;20114;-71
2021/12/03 10:15:20;;;;;;;3.35;2.15;;;1.70;99.90;;;;;;4975298;28;20042;-72
2021/12/03 10:26:14;;;;;;;5.60;2.22;;;1.80;99.90;;;;;;4992155;28;20034;-71
2021/12/03 10:36:38;;;;;;;4.22;2.40;;;1.90;99.90;;;;;;4992027;28;20037;-72
2021/12/03 10:39:23;;;;;;;2.53;2.30;;;1.90;99.90;;;;;;4993915;28;20621;-71
2021/12/03 10:41:58;;;;;;;2.92;1.80;;;1.90;99.90;;;;;;5049204;28;20034;-72
2021/12/03 10:49:42;;;;;;;5.93;2.28;;;1.80;99.90;;;;;;4990840;28;20038;-73
2021/12/03 11:52:21;;;;;;;5.07;3.42;;;2.50;99.90;;;;;;5009875;28;20082;-73
2021/12/03 12:00:24;;;;;;;3.90;2.75;;;2.70;99.90;;;;;;4997140;28;20124;-74
2021/12/03 13:08:46;;;;;;;8.77;5.10;;;2.70;99.90;;;;;;5001256;28;20044;-74
2021/12/03 14:37:21;;;;;;;4.20;2.15;;;2.80;99.90;;;;;;5011301;28;20038;-72
2021/12/03 14:47:38;;;;;;;6.97;3.80;;;2.70;99.90;;;;;;4990277;28;20461;-72
2021/12/03 14:52:54;;;;;;;7.65;4.15;;;2.70;99.90;;;;;;5004788;28;20023;-72
2021/12/03 14:55:29;;;;;;;9.70;4.32;;;2.70;99.90;;;;;;5072416;28;20528;-72
2021/12/03 14:58:02;;;;;;;8.25;4.07;;;2.70;99.90;;;;;;5077955;28;20032;-73
2021/12/03 15:08:48;;;;;;;8.95;3.85;;;2.50;99.90;;;;;;5005588;28;20034;-73
2021/12/03 15:20:05;;;;;;;4.00;2.90;;;2.40;99.90;;;;;;5008684;28;20056;-73
2021/12/03 15:32:37;;;;;;;8.60;5.20;;;2.20;99.90;;;;;;5008692;28;20719;-73
2021/12/03 15:56:57;;;;;;;9.57;4.40;;;2.00;99.90;;;;;;5054142;28;20129;-73
2021/12/03 16:05:01;;;;;;;5.65;2.65;;;2.00;99.90;;;;;;5003393;28;20512;-74
2021/12/03 16:10:09;;;;;;;5.05;2.60;;;1.90;99.90;;;;;;5006893;28;20018;-75
2021/12/03 16:16:03;;;;;;;4.40;3.20;;;1.90;99.90;;;;;;5004288;28;20105;-74
2021/12/03 16:26:22;;;;;;;8.73;4.90;;;1.90;99.90;;;;;;5008790;28;20029;-74
2021/12/03 16:53:13;;;;;;;14.27;5.20;;;1.70;99.90;;;;;;5008445;28;20058;-74
2021/12/03 16:55:39;;;;;;;5.05;2.90;;;1.70;99.90;;;;;;5075976;28;20033;-74
2021/12/03 16:58:05;;;;;;;5.32;2.80;;;1.70;99.90;;;;;;5066994;28;20025;-74
2021/12/03 17:00:40;;;;;;;3.92;2.83;;;1.70;99.90;;;;;;5053594;28;20026;-74
2021/12/03 17:03:19;;;;;;;5.72;3.65;;;1.60;99.90;;;;;;5073223;28;20071;-74
2021/12/03 17:11:47;;;;;;;3.80;2.70;;;1.70;99.90;;;;;;5009401;28;20125;-74
2021/12/03 17:48:57;;;;;;;32.38;15.73;;;1.50;99.90;;;;;;5003735;28;20497;-74
2021/12/03 17:56:43;;;;;;;6.63;3.60;;;1.50;99.90;;;;;;5006676;28;20038;-73
2021/12/03 17:59:17;;;;;;;5.03;3.78;;;1.50;99.90;;;;;;5068973;28;20022;-72
2021/12/03 18:02:02;;;;;;;5.55;3.22;;;1.50;99.90;;;;;;5074510;28;20505;-73
2021/12/03 18:04:41;;;;;;;6.25;3.30;;;1.50;99.90;;;;;;5073256;28;20203;-73
2021/12/03 18:07:50;;;;;;;25.40;11.77;;;1.50;99.90;;;;;;5074420;28;20026;-72
2021/12/03 18:15:36;;;;;;;3.63;2.70;;;1.50;99.90;;;;;;5005385;28;20091;-73
2021/12/03 18:53:19;;;;;;;4.75;2.53;;;1.40;99.90;;;;;;4999211;28;20623;-73
2021/12/03 18:55:49;;;;;;;5.00;2.90;;;1.40;99.90;;;;;;5071537;28;20065;-73
2021/12/03 18:58:15;;;;;;;3.42;2.40;;;1.40;99.90;;;;;;5073030;28;20118;-73
2021/12/03 19:00:45;;;;;;;5.97;3.35;;;1.40;99.90;;;;;;5065452;28;20057;-72
2021/12/03 19:08:29;;;;;;;3.43;2.53;;;1.40;99.90;;;;;;5000303;28;20546;-72
2021/12/03 19:11:03;;;;;;;6.18;3.50;;;1.40;99.90;;;;;;5000075;28;20359;-72
2021/12/03 19:13:34;;;;;;;5.63;3.40;;;1.40;99.90;;;;;;5061664;28;20486;-72
2021/12/03 19:16:02;;;;;;;9.57;4.90;;;1.30;99.90;;;;;;5065987;28;20027;-72
2021/12/03 19:18:28;;;;;;;13.10;4.60;;;1.40;99.90;;;;;;5069755;28;20071;-73
2021/12/03 19:20:54;;;;;;;12.40;6.28;;;1.40;99.90;;;;;;5074777;28;20107;-72
2021/12/03 19:23:20;;;;;;;13.60;7.00;;;1.40;99.90;;;;;;5074687;28;20037;-72
2021/12/03 19:25:46;;;;;;;15.60;7.55;;;1.40;99.90;;;;;;5072577;28;20429;-72
2021/12/03 19:28:12;;;;;;;3.83;3.00;;;1.40;99.90;;;;;;5074665;28;20039;-72
2021/12/03 19:30:37;;;;;;;6.97;3.20;;;1.40;99.90;;;;;;5060240;28;20421;-72
2021/12/03 19:33:06;;;;;;;4.65;2.95;;;1.40;99.90;;;;;;5041791;28;20034;-72
2021/12/03 19:35:32;;;;;;;9.02;4.80;;;1.30;99.90;;;;;;5065434;28;20022;-72
2021/12/03 19:38:01;;;;;;;4.07;2.95;;;1.30;99.90;;;;;;5070172;28;20431;-72
2021/12/03 19:40:32;;;;;;;7.13;3.97;;;1.30;99.90;;;;;;5074241;28;20083;-72
2021/12/03 19:43:06;;;;;;;8.75;6.05;;;1.30;99.90;;;;;;5084029;28;20035;-72
2021/12/03 19:45:35;;;;;;;10.35;6.18;;;1.30;99.90;;;;;;5065452;28;20061;-72
2021/12/03 19:48:04;;;;;;;13.98;7.05;;;1.30;99.90;;;;;;5074290;28;20068;-72
2021/12/03 19:52:59;;;;;;;9.00;4.55;;;1.30;99.90;;;;;;5006908;28;20517;-72
2021/12/03 19:55:26;;;;;;;6.68;3.70;;;1.20;99.90;;;;;;5073816;28;20029;-72
2021/12/03 19:57:51;;;;;;;9.23;4.50;;;1.20;99.90;;;;;;5073560;28;20063;-72
2021/12/03 20:00:18;;;;;;;6.47;3.80;;;1.20;99.90;;;;;;5073275;28;20523;-72
2021/12/03 20:02:44;;;;;;;17.48;6.32;;;1.20;99.90;;;;;;5066195;28;20034;-73
2021/12/03 20:05:10;;;;;;;11.48;5.53;;;1.20;99.90;;;;;;5073533;28;21911;-72
2021/12/03 20:07:36;;;;;;;7.97;4.28;;;1.20;99.90;;;;;;5064150;28;20030;-72
2021/12/03 20:10:14;;;;;;;12.32;5.95;;;1.20;99.90;;;;;;5071957;28;20046;-72
2021/12/03 20:12:40;;;;;;;10.93;5.40;;;1.20;99.90;;;;;;5069553;28;20444;-72
2021/12/03 20:15:09;;;;;;;12.70;6.03;;;1.20;99.90;;;;;;5072125;28;20040;-72
2021/12/03 20:20:23;;;;;;;11.45;5.85;;;1.20;99.90;;;;;;5000538;28;20040;-72
2021/12/03 20:23:05;;;;;;;14.63;5.68;;;1.20;99.90;;;;;;5069546;28;20121;-71
2021/12/03 20:28:04;;;;;;;8.38;4.80;;;1.30;99.90;;;;;;5003485;28;20189;-72
2021/12/03 20:37:59;;;;;;;9.52;4.80;;;1.30;99.90;;;;;;4995910;28;20486;-72
2021/12/03 20:40:27;;;;;;;8.55;4.00;;;1.30;99.90;;;;;;5060229;28;20030;-72
2021/12/03 20:43:05;;;;;;;8.68;3.85;;;1.30;99.90;;;;;;5072312;28;20030;-72
2021/12/03 20:45:56;;;;;;;9.73;4.55;;;1.40;99.90;;;;;;5072032;28;20038;-72
2021/12/03 21:09:54;;;;;;;3.67;2.20;;;1.40;99.90;;;;;;5005106;28;20385;-71
2021/12/03 21:12:32;;;;;;;3.38;2.08;;;1.30;99.90;;;;;;5068867;28;20037;-71
2021/12/03 21:17:42;;;;;;;3.03;2.40;;;1.40;99.90;;;;;;5004123;28;20033;-71
2021/12/03 21:20:32;;;;;;;5.25;2.30;;;1.40;99.90;;;;;;5074730;28;20026;-72